createdAt,value
2023-03-06T00:02:04.969Z,32.73
2023-03-06T00:04:32.588Z,25.07
2023-03-06T00:07:02.125Z,25.63
2023-03-06T00:09:29.815Z,32.57
2023-03-06T00:11:57.464Z,26.90
2023-03-06T00:14:25.772Z,17.40
2023-03-06T00:16:55.264Z,15.63
2023-03-06T00:19:23.337Z,21.83
2023-03-06T00:21:51.151Z,19.80
2023-03-06T00:24:20.194Z,19.37
2023-03-06T00:26:48.005Z,13.13
2023-03-06T00:29:15.955Z,14.27
2023-03-06T00:31:47.911Z,15.43
2023-03-06T00:34:16.171Z,13.97
2023-03-06T00:36:44.037Z,20.77
2023-03-06T00:39:11.809Z,29.50
2023-03-06T00:41:41.780Z,16.87
2023-03-06T00:44:09.936Z,22.27
2023-03-06T00:46:37.726Z,13.77
2023-03-06T00:49:05.955Z,20.03
2023-03-06T00:51:34.176Z,16.67
2023-03-06T00:54:03.617Z,20.67
2023-03-06T00:56:31.606Z,25.93
2023-03-06T00:59:00.844Z,20.93
2023-03-06T01:01:29.255Z,25.97
2023-03-06T01:03:58.747Z,22.60
2023-03-06T01:06:26.502Z,19.63
2023-03-06T01:08:54.238Z,14.60
2023-03-06T01:11:23.799Z,20.20
2023-03-06T01:13:51.509Z,19.33
2023-03-06T01:16:23.729Z,19.10
2023-03-06T01:18:51.579Z,19.27
2023-03-06T01:21:19.284Z,16.10
2023-03-06T01:23:47.604Z,16.70
2023-03-06T01:26:15.326Z,17.83
2023-03-06T01:28:43.182Z,18.97
2023-03-06T01:31:11.701Z,21.40
2023-03-06T01:33:41.536Z,17.53
2023-03-06T01:36:13.272Z,22.10
2023-03-06T01:38:41.063Z,18.03
2023-03-06T01:41:10.777Z,19.73
2023-03-06T01:43:41.681Z,23.67
2023-03-06T01:46:23.656Z,19.00
2023-03-06T01:48:54.253Z,21.10
2023-03-06T01:51:22.139Z,22.40
2023-03-06T01:53:51.462Z,21.00
2023-03-06T01:56:19.516Z,23.20
2023-03-06T01:58:49.523Z,22.20
2023-03-06T02:01:18.843Z,25.30
2023-03-06T02:03:47.906Z,21.70
2023-03-06T02:06:19.780Z,22.37
2023-03-06T02:08:52.382Z,24.70
2023-03-06T02:11:20.655Z,26.87
2023-03-06T02:13:49.687Z,26.67
2023-03-06T02:16:21.145Z,24.47
2023-03-06T02:18:49.868Z,28.40
2023-03-06T02:21:21.301Z,23.37
2023-03-06T02:23:52.406Z,27.30
2023-03-06T02:26:22.890Z,28.53
2023-03-06T02:28:50.577Z,25.70
2023-03-06T02:31:22.351Z,26.10
2023-03-06T02:34:01.493Z,26.13
2023-03-06T02:36:29.927Z,23.10
2023-03-06T02:38:58.248Z,25.20
2023-03-06T02:41:27.781Z,24.63
2023-03-06T02:43:56.611Z,23.57
2023-03-06T02:46:24.600Z,23.60
2023-03-06T02:48:52.331Z,25.83
2023-03-06T02:51:22.651Z,24.90
2023-03-06T02:53:51.111Z,24.93
2023-03-06T02:56:19.213Z,29.87
2023-03-06T02:58:48.419Z,28.17
2023-03-06T03:01:16.651Z,27.80
2023-03-06T03:03:44.560Z,22.23
2023-03-06T03:06:13.259Z,22.87
2023-03-06T03:08:41.914Z,22.80
2023-03-06T03:11:10.640Z,20.20
2023-03-06T03:13:41.585Z,21.03
2023-03-06T03:16:15.754Z,21.50
2023-03-06T03:18:44.661Z,25.23
2023-03-06T03:21:13.683Z,22.60
2023-03-06T03:23:41.798Z,22.50
2023-03-06T03:26:11.131Z,23.33
2023-03-06T03:28:42.245Z,22.13
2023-03-06T03:31:12.198Z,20.43
2023-03-06T03:33:41.503Z,21.73
2023-03-06T03:36:10.568Z,19.93
2023-03-06T03:38:42.443Z,19.43
2023-03-06T03:41:11.232Z,18.23
2023-03-06T03:43:38.931Z,16.20
2023-03-06T03:46:07.149Z,18.60
2023-03-06T03:48:35.175Z,17.40
2023-03-06T03:51:06.999Z,21.57
2023-03-06T03:53:36.938Z,13.70
2023-03-06T03:56:05.799Z,19.13
2023-03-06T03:58:36.505Z,18.70
2023-03-06T04:01:04.349Z,22.23
2023-03-06T04:03:32.039Z,18.43
2023-03-06T04:06:00.274Z,18.10
2023-03-06T04:08:30.101Z,14.60
2023-03-06T04:10:57.936Z,13.90
2023-03-06T04:13:25.990Z,15.53
2023-03-06T04:15:55.245Z,14.53
2023-03-06T04:18:24.562Z,21.43
2023-03-06T04:20:55.900Z,19.97
2023-03-06T04:23:25.480Z,15.27
2023-03-06T04:25:54.546Z,15.90
2023-03-06T04:28:23.458Z,18.67
2023-03-06T04:30:51.099Z,20.20
2023-03-06T04:33:20.525Z,22.17
2023-03-06T04:35:48.866Z,19.90
2023-03-06T04:38:23.459Z,25.13
2023-03-06T04:40:51.163Z,19.50
2023-03-06T04:43:20.319Z,17.00
2023-03-06T04:45:48.175Z,18.47
2023-03-06T04:48:17.461Z,16.67
2023-03-06T04:50:45.369Z,17.57
2023-03-06T04:53:14.848Z,15.73
2023-03-06T04:55:42.470Z,17.50
2023-03-06T04:58:11.131Z,17.97
2023-03-06T05:00:40.688Z,18.03
2023-03-06T05:03:09.513Z,16.50
2023-03-06T05:05:37.188Z,17.60
2023-03-06T05:08:05.040Z,20.10
2023-03-06T05:10:32.807Z,14.43
2023-03-06T05:13:00.477Z,13.70
2023-03-06T05:15:28.192Z,14.47
2023-03-06T05:17:57.704Z,16.70
2023-03-06T05:20:25.981Z,14.03
2023-03-06T05:22:53.857Z,14.10
2023-03-06T05:25:21.546Z,13.63
2023-03-06T05:27:49.543Z,14.00
2023-03-06T05:30:17.333Z,10.87
2023-03-06T05:32:45.502Z,14.70
2023-03-06T05:35:19.227Z,14.00
2023-03-06T05:37:46.922Z,12.33
2023-03-06T05:40:15.824Z,13.00
2023-03-06T05:42:43.753Z,13.80
2023-03-06T05:45:12.643Z,11.00
2023-03-06T05:47:40.583Z,11.70
2023-03-06T05:50:10.443Z,10.40
2023-03-06T05:52:39.913Z,10.50
2023-03-06T05:55:08.513Z,11.97
2023-03-06T05:57:36.308Z,15.73
2023-03-06T06:00:04.916Z,13.53
2023-03-06T06:02:40.392Z,15.10
2023-03-06T06:05:09.020Z,15.17
2023-03-06T06:07:37.433Z,14.37
2023-03-06T06:10:08.074Z,11.23
2023-03-06T06:12:36.017Z,11.03
2023-03-06T06:15:03.864Z,14.30
2023-03-06T06:17:32.927Z,12.70
2023-03-06T06:20:00.731Z,13.10
2023-03-06T06:22:28.931Z,11.40
2023-03-06T06:24:56.829Z,10.97
2023-03-06T06:27:25.842Z,14.77
2023-03-06T06:29:53.450Z,11.23
2023-03-06T06:32:21.482Z,11.87
2023-03-06T06:34:49.524Z,13.80
2023-03-06T06:37:17.195Z,10.20
2023-03-06T06:39:45.366Z,15.30
2023-03-06T06:42:31.216Z,21.07
2023-03-06T06:45:02.269Z,12.97
2023-03-06T06:47:30.111Z,15.80
2023-03-06T06:49:58.081Z,18.60
2023-03-06T06:52:26.466Z,14.73
2023-03-06T06:54:54.178Z,15.77
2023-03-06T06:57:21.828Z,20.00
2023-03-06T06:59:54.084Z,13.80
2023-03-06T07:02:23.360Z,16.63
2023-03-06T07:05:05.710Z,16.20
2023-03-06T07:07:35.441Z,16.30
2023-03-06T07:10:03.569Z,14.87
2023-03-06T07:12:32.820Z,16.13
2023-03-06T07:15:01.561Z,18.33
2023-03-06T07:17:30.822Z,19.27
2023-03-06T07:19:59.494Z,15.97
2023-03-06T07:22:28.144Z,14.07
2023-03-06T07:24:56.935Z,11.77
2023-03-06T07:27:26.210Z,17.67
2023-03-06T07:29:54.413Z,19.10
2023-03-06T07:32:22.161Z,15.90
2023-03-06T07:34:51.868Z,20.87
2023-03-06T07:37:19.635Z,20.87
2023-03-06T07:39:47.298Z,20.50
2023-03-06T07:42:15.739Z,18.90
2023-03-06T07:44:54.989Z,19.17
2023-03-06T07:47:24.080Z,23.50
2023-03-06T07:49:55.220Z,12.30
2023-03-06T07:52:22.955Z,13.53
2023-03-06T07:54:50.652Z,16.20
2023-03-06T07:57:18.532Z,16.07
2023-03-06T07:59:46.278Z,18.10
2023-03-06T08:02:15.206Z,21.70
2023-03-06T08:04:43.707Z,19.07
2023-03-06T08:07:13.387Z,22.23
2023-03-06T08:09:41.180Z,19.70
2023-03-06T08:12:09.433Z,23.00
2023-03-06T08:14:38.909Z,25.13
2023-03-06T08:17:06.965Z,22.20
2023-03-06T08:19:34.685Z,30.00
2023-03-06T08:22:03.284Z,26.43
2023-03-06T08:24:34.448Z,23.10
2023-03-06T08:27:02.549Z,20.90
2023-03-06T08:29:32.087Z,22.10
2023-03-06T08:32:00.381Z,21.27
2023-03-06T08:34:28.093Z,23.00
2023-03-06T08:36:58.469Z,20.93
2023-03-06T08:39:26.103Z,20.10
2023-03-06T08:41:55.385Z,25.10
2023-03-06T08:44:23.388Z,20.33
2023-03-06T08:46:51.103Z,16.80
2023-03-06T08:49:18.792Z,18.90
2023-03-06T08:51:46.934Z,19.40
2023-03-06T08:54:14.879Z,14.97
2023-03-06T08:56:42.717Z,15.50
2023-03-06T08:59:13.514Z,21.50
2023-03-06T09:01:41.290Z,14.30
2023-03-06T09:04:09.800Z,12.30
2023-03-06T09:06:38.694Z,16.57
2023-03-06T09:09:07.172Z,16.23
2023-03-06T09:11:35.532Z,9.00
2023-03-06T09:14:08.025Z,12.63
2023-03-06T09:16:37.316Z,11.10
2023-03-06T09:19:05.260Z,14.60
2023-03-06T09:21:34.352Z,16.00
2023-03-06T09:24:02.869Z,19.90
2023-03-06T09:26:45.082Z,11.93
2023-03-06T09:29:16.413Z,13.47
2023-03-06T09:31:47.282Z,10.97
2023-03-06T09:34:16.133Z,12.20
2023-03-06T09:36:56.667Z,10.20
2023-03-06T09:39:27.795Z,18.73
2023-03-06T09:41:56.809Z,15.07
2023-03-06T09:44:27.545Z,13.57
2023-03-06T09:47:11.834Z,12.60
2023-03-06T09:49:47.500Z,9.33
2023-03-06T09:52:22.796Z,12.90
2023-03-06T09:54:54.531Z,10.80
2023-03-06T09:57:25.920Z,10.13
2023-03-06T09:59:56.247Z,9.00
2023-03-06T10:02:32.009Z,8.80
2023-03-06T10:05:01.888Z,9.23
2023-03-06T10:07:34.407Z,5.87
2023-03-06T10:10:04.587Z,7.40
2023-03-06T10:12:35.046Z,9.90
2023-03-06T10:15:07.968Z,7.37
2023-03-06T10:17:38.321Z,10.13
2023-03-06T10:20:23.573Z,14.03
2023-03-06T10:23:10.505Z,9.80
2023-03-06T10:25:42.739Z,10.90
2023-03-06T10:28:15.619Z,21.60
2023-03-06T10:30:46.433Z,10.23
2023-03-06T10:33:22.542Z,6.13
2023-03-06T10:35:50.982Z,8.60
2023-03-06T10:38:20.718Z,10.17
2023-03-06T10:40:53.091Z,9.37
2023-03-06T10:43:20.926Z,12.37
2023-03-06T10:45:49.948Z,12.97
2023-03-06T10:48:21.730Z,9.00
2023-03-06T10:50:49.563Z,12.53
2023-03-06T10:53:21.398Z,11.03
2023-03-06T10:55:52.070Z,9.03
2023-03-06T10:58:20.810Z,5.93
2023-03-06T11:00:48.942Z,10.27
2023-03-06T11:03:18.252Z,6.90
2023-03-06T11:06:02.421Z,10.37
2023-03-06T11:08:30.339Z,5.90
2023-03-06T11:10:59.452Z,9.53
2023-03-06T11:13:29.812Z,13.37
2023-03-06T11:16:03.150Z,6.10
2023-03-06T11:18:41.401Z,9.63
2023-03-06T11:21:26.191Z,10.50
2023-03-06T11:23:58.221Z,10.40
2023-03-06T11:26:30.097Z,9.27
2023-03-06T11:29:03.077Z,9.37
2023-03-06T11:31:32.714Z,10.87
2023-03-06T11:34:05.684Z,7.10
2023-03-06T11:36:37.109Z,7.30
2023-03-06T11:39:17.672Z,8.23
2023-03-06T11:41:49.623Z,8.83
2023-03-06T11:44:23.096Z,10.03
2023-03-06T11:46:52.150Z,6.73
2023-03-06T11:49:23.615Z,9.17
2023-03-06T11:51:53.938Z,8.00
2023-03-06T11:54:23.470Z,9.63
2023-03-06T11:56:54.450Z,13.27
2023-03-06T11:59:32.507Z,6.57
2023-03-06T12:02:04.045Z,10.33
2023-03-06T12:04:39.273Z,11.00
2023-03-06T12:07:14.036Z,7.20
2023-03-06T12:09:47.198Z,10.97
2023-03-06T12:12:20.839Z,11.00
2023-03-06T12:14:58.555Z,10.50
2023-03-06T12:17:31.514Z,8.50
2023-03-06T12:20:22.880Z,8.00
2023-03-06T12:22:57.526Z,6.73
2023-03-06T12:25:35.315Z,8.40
2023-03-06T12:28:11.412Z,11.10
2023-03-06T12:30:57.253Z,9.63
2023-03-06T12:33:27.456Z,8.83
2023-03-06T12:36:04.102Z,12.10
2023-03-06T12:38:42.090Z,11.30
2023-03-06T12:41:20.094Z,10.03
2023-03-06T12:44:03.954Z,12.20
2023-03-06T12:46:36.784Z,11.90
2023-03-06T12:49:06.180Z,20.80
2023-03-06T12:51:34.485Z,19.77
2023-03-06T12:54:03.136Z,10.90
2023-03-06T12:56:32.935Z,19.33
2023-03-06T12:59:02.646Z,11.63
2023-03-06T13:01:45.343Z,10.47
2023-03-06T13:04:23.620Z,12.43
2023-03-06T13:06:56.207Z,8.53
2023-03-06T13:09:29.638Z,12.03
2023-03-06T13:12:15.781Z,11.27
2023-03-06T13:14:55.305Z,11.13
2023-03-06T13:17:33.643Z,10.40
2023-03-06T13:20:28.546Z,10.97
2023-03-06T13:22:56.876Z,9.50
2023-03-06T13:25:48.043Z,8.33
2023-03-06T13:28:26.314Z,6.93
2023-03-06T13:30:56.289Z,5.40
2023-03-06T13:33:43.178Z,7.07
2023-03-06T13:36:29.020Z,8.40
2023-03-06T13:38:57.915Z,7.20
2023-03-06T13:41:37.526Z,7.30
2023-03-06T13:44:34.923Z,9.10
2023-03-06T13:47:06.256Z,7.50
2023-03-06T13:49:34.552Z,6.30
2023-03-06T13:52:08.035Z,6.10
2023-03-06T13:54:43.268Z,5.10
2023-03-06T13:57:21.635Z,6.50
2023-03-06T14:00:09.564Z,9.17
2023-03-06T14:02:52.747Z,9.00
2023-03-06T14:05:22.319Z,9.70
2023-03-06T14:08:03.298Z,6.70
2023-03-06T14:10:32.929Z,8.33
2023-03-06T14:13:05.754Z,4.70
2023-03-06T14:15:41.942Z,7.37
2023-03-06T14:18:15.438Z,15.60
2023-03-06T14:20:45.265Z,4.90
2023-03-06T14:23:17.716Z,3.43
2023-03-06T14:25:46.481Z,9.43
2023-03-06T14:28:23.088Z,8.93
2023-03-06T14:30:51.219Z,7.57
2023-03-06T14:33:26.211Z,5.80
2023-03-06T14:35:57.056Z,9.70
2023-03-06T14:38:24.818Z,12.23
2023-03-06T14:40:53.469Z,5.30
2023-03-06T14:43:22.304Z,8.60
2023-03-06T14:45:54.172Z,8.77
2023-03-06T14:48:22.311Z,7.30
2023-03-06T14:50:55.420Z,6.97
2023-03-06T14:53:25.113Z,6.03
2023-03-06T14:56:17.368Z,5.47
2023-03-06T14:58:49.664Z,3.73
2023-03-06T15:01:24.351Z,5.53
2023-03-06T15:03:52.963Z,5.17
2023-03-06T15:06:23.265Z,5.53
2023-03-06T15:08:56.612Z,10.33
2023-03-06T15:11:24.330Z,8.37
2023-03-06T15:14:01.157Z,8.00
2023-03-06T15:16:30.370Z,8.30
2023-03-06T15:18:59.169Z,11.93
2023-03-06T15:21:29.311Z,4.27
2023-03-06T15:23:58.267Z,4.30
2023-03-06T15:26:29.208Z,11.70
2023-03-06T15:29:08.219Z,9.50
2023-03-06T15:31:37.862Z,6.60
2023-03-06T15:34:18.728Z,5.77
2023-03-06T15:36:49.248Z,5.40
2023-03-06T15:39:27.724Z,5.47
2023-03-06T15:41:57.258Z,5.60
2023-03-06T15:44:25.159Z,9.83
2023-03-06T15:47:07.771Z,5.13
2023-03-06T15:49:37.502Z,6.53
2023-03-06T15:52:07.267Z,5.73
2023-03-06T15:54:34.991Z,6.20
2023-03-06T15:57:04.237Z,7.93
2023-03-06T15:59:33.248Z,7.63
2023-03-06T16:02:03.185Z,10.17
2023-03-06T16:04:31.130Z,12.20
2023-03-06T16:06:59.054Z,7.23
2023-03-06T16:09:28.236Z,7.63
2023-03-06T16:11:55.961Z,7.20
2023-03-06T16:14:24.629Z,7.67
2023-03-06T16:16:53.940Z,8.00
2023-03-06T16:19:26.331Z,5.30
2023-03-06T16:21:55.513Z,10.73
2023-03-06T16:24:23.541Z,12.57
2023-03-06T16:26:54.811Z,9.93
2023-03-06T16:29:24.030Z,9.60
2023-03-06T16:31:52.354Z,8.30
2023-03-06T16:34:20.172Z,5.53
2023-03-06T16:36:48.603Z,6.50
2023-03-06T16:39:16.953Z,7.30
2023-03-06T16:41:45.821Z,5.80
2023-03-06T16:44:14.972Z,4.80
2023-03-06T16:46:45.658Z,8.30
2023-03-06T16:49:16.150Z,5.30
2023-03-06T16:51:43.831Z,3.57
2023-03-06T16:54:11.639Z,7.63
2023-03-06T16:56:39.628Z,8.20
2023-03-06T16:59:07.446Z,8.33
2023-03-06T17:01:37.081Z,9.83
2023-03-06T17:04:05.284Z,13.67
2023-03-06T17:06:33.085Z,8.50
2023-03-06T17:09:00.879Z,20.73
2023-03-06T17:11:28.994Z,12.30
2023-03-06T17:13:56.997Z,19.90
2023-03-06T17:16:24.762Z,16.87
2023-03-06T17:18:56.249Z,11.10
2023-03-06T17:21:26.529Z,8.10
2023-03-06T17:23:54.700Z,8.60
2023-03-06T17:26:22.875Z,9.03
2023-03-06T17:28:50.539Z,10.80
2023-03-06T17:31:21.944Z,7.07
2023-03-06T17:33:51.581Z,5.83
2023-03-06T17:36:20.868Z,8.67
2023-03-06T17:38:49.748Z,11.80
2023-03-06T17:41:17.825Z,5.37
2023-03-06T17:43:46.359Z,6.53
2023-03-06T17:46:14.655Z,8.23
2023-03-06T17:48:42.924Z,14.77
2023-03-06T17:51:10.762Z,13.07
2023-03-06T17:53:40.353Z,14.93
2023-03-06T17:56:09.326Z,11.13
2023-03-06T17:58:37.212Z,13.73
2023-03-06T18:01:10.935Z,9.07
2023-03-06T18:03:38.833Z,8.07
2023-03-06T18:06:09.337Z,14.83
2023-03-06T18:09:01.033Z,14.50
2023-03-06T18:11:28.878Z,10.20
2023-03-06T18:13:56.515Z,8.90
2023-03-06T18:16:25.647Z,10.50
2023-03-06T18:18:53.941Z,9.80
2023-03-06T18:21:21.670Z,9.70
2023-03-06T18:23:50.773Z,15.67
2023-03-06T18:26:20.851Z,14.27
2023-03-06T18:28:49.981Z,9.10
2023-03-06T18:31:18.368Z,10.40
2023-03-06T18:33:48.271Z,10.90
2023-03-06T18:36:15.991Z,11.40
2023-03-06T18:38:45.502Z,18.60
2023-03-06T18:41:13.408Z,13.80
2023-03-06T18:43:42.941Z,9.80
2023-03-06T18:46:11.404Z,17.93
2023-03-06T18:48:39.216Z,13.20
2023-03-06T18:51:07.398Z,14.23
2023-03-06T18:53:35.491Z,15.77
2023-03-06T18:56:03.477Z,19.80
2023-03-06T18:58:31.201Z,19.03
2023-03-06T19:01:02.215Z,14.87
2023-03-06T19:03:30.390Z,16.50
2023-03-06T19:05:59.565Z,13.40
2023-03-06T19:08:27.238Z,14.40
2023-03-06T19:10:56.278Z,15.87
2023-03-06T19:13:27.213Z,13.60
2023-03-06T19:15:57.007Z,27.13
2023-03-06T19:18:27.267Z,17.03
2023-03-06T19:20:55.092Z,15.77
2023-03-06T19:23:23.335Z,17.10
2023-03-06T19:25:57.809Z,16.13
2023-03-06T19:28:25.529Z,19.20
2023-03-06T19:30:54.312Z,15.87
2023-03-06T19:33:22.753Z,15.70
2023-03-06T19:35:53.024Z,32.50
2023-03-06T19:38:20.849Z,17.53
2023-03-06T19:40:52.075Z,34.83
2023-03-06T19:43:19.872Z,42.90
2023-03-06T19:45:48.644Z,25.53
2023-03-06T19:48:17.885Z,17.03
2023-03-06T19:50:45.643Z,21.17
2023-03-06T19:53:17.380Z,18.90
2023-03-06T19:55:45.398Z,23.57
2023-03-06T19:58:14.308Z,22.63
2023-03-06T20:00:42.890Z,22.33
2023-03-06T20:03:11.896Z,24.47
2023-03-06T20:05:46.114Z,22.73
2023-03-06T20:08:14.176Z,34.83
2023-03-06T20:10:43.378Z,19.47
2023-03-06T20:13:11.351Z,30.60
2023-03-06T20:15:39.831Z,21.37
2023-03-06T20:18:07.535Z,17.13
2023-03-06T20:20:37.667Z,30.80
2023-03-06T20:23:05.647Z,25.87
2023-03-06T20:25:35.288Z,24.43
2023-03-06T20:28:05.011Z,18.60
2023-03-06T20:30:38.123Z,35.53
2023-03-06T20:33:06.906Z,31.63
2023-03-06T20:35:36.518Z,22.00
2023-03-06T20:38:04.716Z,32.77
2023-03-06T20:40:32.429Z,27.60
2023-03-06T20:43:00.139Z,18.20
2023-03-06T20:45:29.396Z,24.43
2023-03-06T20:47:57.171Z,17.40
2023-03-06T20:50:25.552Z,21.40
2023-03-06T20:52:54.927Z,24.37
2023-03-06T20:55:22.965Z,20.53
2023-03-06T20:57:50.874Z,19.70
2023-03-06T21:00:19.211Z,15.63
2023-03-06T21:02:48.546Z,16.13
2023-03-06T21:05:16.438Z,13.33
2023-03-06T21:07:44.895Z,17.70
2023-03-06T21:10:15.705Z,19.80
2023-03-06T21:12:43.416Z,19.93
2023-03-06T21:15:12.981Z,21.80
2023-03-06T21:17:41.112Z,28.87
2023-03-06T21:20:11.112Z,21.83
2023-03-06T21:22:39.199Z,29.37
2023-03-06T21:25:07.038Z,24.27
2023-03-06T21:27:35.078Z,23.67
2023-03-06T21:30:03.479Z,16.67
2023-03-06T21:32:31.494Z,26.73
2023-03-06T21:35:00.071Z,25.07
2023-03-06T21:37:30.408Z,38.70
2023-03-06T21:39:59.989Z,17.80
2023-03-06T21:42:27.684Z,19.77
2023-03-06T21:44:55.384Z,20.83
2023-03-06T21:47:23.042Z,25.50
2023-03-06T21:49:50.846Z,20.57
2023-03-06T21:52:19.078Z,20.03
2023-03-06T21:54:49.289Z,18.60
2023-03-06T21:57:17.771Z,20.43
2023-03-06T21:59:45.736Z,15.47
2023-03-06T22:02:13.565Z,17.93
2023-03-06T22:04:41.532Z,33.93
2023-03-06T22:07:09.349Z,30.43
2023-03-06T22:09:37.354Z,28.03
2023-03-06T22:12:06.690Z,20.00
2023-03-06T22:14:34.865Z,16.37
2023-03-06T22:17:02.889Z,17.90
2023-03-06T22:19:30.669Z,20.60
2023-03-06T22:21:58.658Z,29.60
2023-03-06T22:24:26.290Z,13.77
2023-03-06T22:26:54.522Z,26.20
2023-03-06T22:29:24.087Z,16.30
2023-03-06T22:31:52.004Z,16.60
2023-03-06T22:34:21.587Z,13.43
2023-03-06T22:36:49.764Z,22.77
2023-03-06T22:39:18.544Z,24.80
2023-03-06T22:41:46.928Z,28.80
2023-03-06T22:44:16.110Z,25.33
2023-03-06T22:46:47.307Z,17.63
2023-03-06T22:49:16.860Z,19.33
2023-03-06T22:51:44.647Z,17.67
2023-03-06T22:54:12.678Z,16.70
2023-03-06T22:56:40.900Z,17.40
2023-03-06T22:59:08.565Z,17.00
2023-03-06T23:01:36.541Z,22.33
2023-03-06T23:04:08.356Z,15.03
2023-03-06T23:06:37.307Z,32.70
2023-03-06T23:09:06.774Z,24.23
2023-03-06T23:11:53.835Z,13.57
2023-03-06T23:14:40.587Z,17.40
2023-03-06T23:17:27.440Z,21.23
2023-03-06T23:20:15.384Z,13.97
2023-03-06T23:23:01.546Z,23.07
2023-03-06T23:25:44.820Z,15.70
2023-03-06T23:28:13.194Z,14.20
2023-03-06T23:30:41.195Z,14.10
2023-03-06T23:33:09.301Z,19.10
2023-03-06T23:35:39.353Z,19.27
2023-03-06T23:38:07.445Z,16.17
2023-03-06T23:40:36.189Z,15.63
2023-03-06T23:43:04.285Z,20.27
2023-03-06T23:45:32.419Z,19.00
2023-03-06T23:48:00.169Z,22.07
2023-03-06T23:50:29.376Z,26.30
2023-03-06T23:52:58.516Z,21.53
2023-03-06T23:55:26.361Z,23.63
2023-03-06T23:57:54.340Z,22.87
